sensor_id;sensor_type;location;lat;lon;timestamp;pressure;altitude;pressure_sealevel;temperature;humidity
38812;BME280;24553;51.640;-0.752;2023-09-19T00:02:16;100046.88;;;14.32;100.00
38812;BME280;24553;51.640;-0.752;2023-09-19T00:04:42;100043.31;;;14.38;100.00
38812;BME280;24553;51.640;-0.752;2023-09-19T00:07:08;100041.47;;;14.38;100.00
38812;BME280;24553;51.640;-0.752;2023-09-19T00:09:34;100040.50;;;14.33;100.00
38812;BME280;24553;51.640;-0.752;2023-09-19T00:12:04;100045.59;;;14.34;100.00
38812;BME280;24553;51.640;-0.752;2023-09-19T00:14:30;100046.88;;;14.32;100.00
38812;BME280;24553;51.640;-0.752;2023-09-19T00:16:59;100037.47;;;14.29;100.00
38812;BME280;24553;51.640;-0.752;2023-09-19T00:19:25;100036.31;;;14.25;100.00
38812;BME280;24553;51.640;-0.752;2023-09-19T00:21:51;100034.38;;;14.14;100.00
38812;BME280;24553;51.640;-0.752;2023-09-19T00:24:18;100040.19;;;14.11;100.00
38812;BME280;24553;51.640;-0.752;2023-09-19T00:26:43;100047.13;;;14.12;100.00
38812;BME280;24553;51.640;-0.752;2023-09-19T00:29:08;100045.28;;;14.12;100.00
38812;BME280;24553;51.640;-0.752;2023-09-19T00:31:34;100047.25;;;14.17;100.00
38812;BME280;24553;51.640;-0.752;2023-09-19T00:33:59;100054.59;;;14.22;100.00
38812;BME280;24553;51.640;-0.752;2023-09-19T00:36:35;100051.03;;;14.28;100.00
38812;BME280;24553;51.640;-0.752;2023-09-19T00:39:00;100049.41;;;14.27;100.00
38812;BME280;24553;51.640;-0.752;2023-09-19T00:41:25;100053.19;;;14.19;100.00
38812;BME280;24553;51.640;-0.752;2023-09-19T00:43:51;100048.66;;;14.19;100.00
38812;BME280;24553;51.640;-0.752;2023-09-19T00:46:17;100062.56;;;14.10;100.00
38812;BME280;24553;51.640;-0.752;2023-09-19T00:48:42;100069.28;;;14.12;100.00
38812;BME280;24553;51.640;-0.752;2023-09-19T00:51:11;100064.75;;;14.13;100.00
38812;BME280;24553;51.640;-0.752;2023-09-19T00:53:39;100061.03;;;14.14;100.00
38812;BME280;24553;51.640;-0.752;2023-09-19T00:56:05;100060.91;;;14.09;100.00
38812;BME280;24553;51.640;-0.752;2023-09-19T00:58:32;100058.69;;;14.06;100.00
38812;BME280;24553;51.640;-0.752;2023-09-19T01:01:00;100064.94;;;14.00;100.00
38812;BME280;24553;51.640;-0.752;2023-09-19T01:03:27;100073.00;;;13.93;100.00
38812;BME280;24553;51.640;-0.752;2023-09-19T01:05:52;100067.91;;;13.91;100.00
38812;BME280;24553;51.640;-0.752;2023-09-19T01:08:18;100069.56;;;13.86;100.00
38812;BME280;24553;51.640;-0.752;2023-09-19T01:10:52;100068.13;;;13.90;100.00
38812;BME280;24553;51.640;-0.752;2023-09-19T01:13:43;100060.56;;;13.87;100.00
38812;BME280;24553;51.640;-0.752;2023-09-19T01:31:31;100054.13;;;13.76;100.00
38812;BME280;24553;51.640;-0.752;2023-09-19T01:34:02;100052.47;;;13.75;100.00
38812;BME280;24553;51.640;-0.752;2023-09-19T01:36:33;100048.50;;;13.66;100.00
38812;BME280;24553;51.640;-0.752;2023-09-19T01:39:21;100051.69;;;13.74;100.00
38812;BME280;24553;51.640;-0.752;2023-09-19T01:41:54;100041.38;;;13.78;100.00
38812;BME280;24553;51.640;-0.752;2023-09-19T01:44:31;100031.97;;;13.75;100.00
38812;BME280;24553;51.640;-0.752;2023-09-19T01:47:08;100026.66;;;13.75;100.00
38812;BME280;24553;51.640;-0.752;2023-09-19T01:49:44;100037.56;;;13.74;100.00
38812;BME280;24553;51.640;-0.752;2023-09-19T01:52:14;100038.56;;;13.73;100.00
38812;BME280;24553;51.640;-0.752;2023-09-19T01:54:52;100056.66;;;13.71;100.00
38812;BME280;24553;51.640;-0.752;2023-09-19T01:59:59;100060.41;;;13.82;100.00
38812;BME280;24553;51.640;-0.752;2023-09-19T02:02:26;100073.00;;;13.74;100.00
38812;BME280;24553;51.640;-0.752;2023-09-19T02:04:54;100067.88;;;13.73;100.00
38812;BME280;24553;51.640;-0.752;2023-09-19T02:07:20;100070.28;;;13.81;100.00
38812;BME280;24553;51.640;-0.752;2023-09-19T02:09:45;100071.88;;;13.82;100.00
38812;BME280;24553;51.640;-0.752;2023-09-19T02:12:13;100071.59;;;13.90;100.00
38812;BME280;24553;51.640;-0.752;2023-09-19T02:14:40;100065.13;;;13.98;100.00
38812;BME280;24553;51.640;-0.752;2023-09-19T02:17:06;100067.81;;;13.98;100.00
38812;BME280;24553;51.640;-0.752;2023-09-19T02:19:32;100066.41;;;13.95;100.00
38812;BME280;24553;51.640;-0.752;2023-09-19T02:21:59;100078.75;;;14.08;100.00
38812;BME280;24553;51.640;-0.752;2023-09-19T02:24:24;100069.34;;;14.06;100.00
38812;BME280;24553;51.640;-0.752;2023-09-19T02:26:52;100048.75;;;14.13;100.00
38812;BME280;24553;51.640;-0.752;2023-09-19T02:29:17;100042.44;;;14.26;100.00
38812;BME280;24553;51.640;-0.752;2023-09-19T02:31:43;100038.88;;;14.32;100.00
38812;BME280;24553;51.640;-0.752;2023-09-19T02:34:08;100035.47;;;14.25;100.00
38812;BME280;24553;51.640;-0.752;2023-09-19T02:36:33;100029.72;;;14.28;100.00
38812;BME280;24553;51.640;-0.752;2023-09-19T02:38:59;100038.84;;;14.20;100.00
38812;BME280;24553;51.640;-0.752;2023-09-19T02:41:24;100036.38;;;14.18;100.00
38812;BME280;24553;51.640;-0.752;2023-09-19T02:43:49;100041.72;;;14.18;100.00
38812;BME280;24553;51.640;-0.752;2023-09-19T02:46:15;100046.59;;;14.22;100.00
38812;BME280;24553;51.640;-0.752;2023-09-19T02:48:41;100042.31;;;14.21;100.00
38812;BME280;24553;51.640;-0.752;2023-09-19T02:51:07;100030.09;;;14.13;100.00
38812;BME280;24553;51.640;-0.752;2023-09-19T02:53:32;100035.88;;;14.10;100.00
38812;BME280;24553;51.640;-0.752;2023-09-19T02:55:58;100038.31;;;14.11;100.00
38812;BME280;24553;51.640;-0.752;2023-09-19T02:58:24;100039.50;;;14.15;100.00
38812;BME280;24553;51.640;-0.752;2023-09-19T03:00:50;100029.84;;;14.14;100.00
38812;BME280;24553;51.640;-0.752;2023-09-19T03:03:16;100029.56;;;14.23;100.00
38812;BME280;24553;51.640;-0.752;2023-09-19T03:05:42;100033.19;;;14.28;100.00
38812;BME280;24553;51.640;-0.752;2023-09-19T03:08:13;100031.19;;;14.24;100.00
38812;BME280;24553;51.640;-0.752;2023-09-19T03:10:40;100026.44;;;14.26;100.00
38812;BME280;24553;51.640;-0.752;2023-09-19T03:13:06;100030.06;;;14.31;100.00
38812;BME280;24553;51.640;-0.752;2023-09-19T03:15:32;100036.13;;;14.38;100.00
38812;BME280;24553;51.640;-0.752;2023-09-19T03:17:58;100017.31;;;14.33;100.00
38812;BME280;24553;51.640;-0.752;2023-09-19T03:20:24;100016.50;;;14.33;100.00
38812;BME280;24553;51.640;-0.752;2023-09-19T03:22:50;100015.69;;;14.32;100.00
38812;BME280;24553;51.640;-0.752;2023-09-19T03:25:17;100006.88;;;14.32;100.00
38812;BME280;24553;51.640;-0.752;2023-09-19T03:27:42;99999.78;;;14.26;100.00
38812;BME280;24553;51.640;-0.752;2023-09-19T03:30:08;99993.72;;;14.18;100.00
38812;BME280;24553;51.640;-0.752;2023-09-19T03:32:36;99995.44;;;14.13;100.00
38812;BME280;24553;51.640;-0.752;2023-09-19T03:35:02;99993.00;;;14.11;100.00
38812;BME280;24553;51.640;-0.752;2023-09-19T03:37:29;99988.25;;;14.13;100.00
38812;BME280;24553;51.640;-0.752;2023-09-19T03:39:54;99975.84;;;14.07;100.00
38812;BME280;24553;51.640;-0.752;2023-09-19T03:42:20;99980.72;;;14.10;100.00
38812;BME280;24553;51.640;-0.752;2023-09-19T03:44:50;99980.25;;;14.13;100.00
38812;BME280;24553;51.640;-0.752;2023-09-19T03:47:17;99964.72;;;14.10;100.00
38812;BME280;24553;51.640;-0.752;2023-09-19T03:49:43;99975.38;;;14.10;100.00
38812;BME280;24553;51.640;-0.752;2023-09-19T03:52:08;99964.25;;;14.13;100.00
38812;BME280;24553;51.640;-0.752;2023-09-19T03:54:33;99960.19;;;14.11;100.00
38812;BME280;24553;51.640;-0.752;2023-09-19T03:56:59;99961.91;;;14.05;100.00
38812;BME280;24553;51.640;-0.752;2023-09-19T03:59:24;99953.94;;;14.05;100.00
38812;BME280;24553;51.640;-0.752;2023-09-19T04:01:49;99951.59;;;14.09;100.00
38812;BME280;24553;51.640;-0.752;2023-09-19T04:04:15;99945.81;;;14.12;100.00
38812;BME280;24553;51.640;-0.752;2023-09-19T04:06:40;99939.69;;;14.11;100.00
38812;BME280;24553;51.640;-0.752;2023-09-19T04:09:06;99935.63;;;14.09;100.00
38812;BME280;24553;51.640;-0.752;2023-09-19T04:11:33;99936.00;;;14.12;100.00
38812;BME280;24553;51.640;-0.752;2023-09-19T04:13:58;99933.88;;;14.14;100.00
38812;BME280;24553;51.640;-0.752;2023-09-19T04:16:24;99932.41;;;14.18;100.00
38812;BME280;24553;51.640;-0.752;2023-09-19T04:18:49;99922.31;;;14.21;100.00
38812;BME280;24553;51.640;-0.752;2023-09-19T04:21:15;99913.88;;;14.24;100.00
38812;BME280;24553;51.640;-0.752;2023-09-19T04:23:41;99912.56;;;14.14;100.00
38812;BME280;24553;51.640;-0.752;2023-09-19T04:26:06;99919.16;;;14.12;100.00
38812;BME280;24553;51.640;-0.752;2023-09-19T04:28:31;99926.81;;;14.08;100.00
38812;BME280;24553;51.640;-0.752;2023-09-19T04:30:59;99928.63;;;13.96;100.00
38812;BME280;24553;51.640;-0.752;2023-09-19T04:33:25;99936.88;;;14.06;100.00
38812;BME280;24553;51.640;-0.752;2023-09-19T04:35:52;99936.41;;;14.09;100.00
38812;BME280;24553;51.640;-0.752;2023-09-19T04:38:18;99932.88;;;14.15;100.00
38812;BME280;24553;51.640;-0.752;2023-09-19T04:40:45;99945.06;;;14.23;100.00
38812;BME280;24553;51.640;-0.752;2023-09-19T04:43:10;99936.84;;;14.36;100.00
38812;BME280;24553;51.640;-0.752;2023-09-19T04:45:35;99926.66;;;14.45;100.00
38812;BME280;24553;51.640;-0.752;2023-09-19T04:48:03;99935.50;;;14.46;100.00
38812;BME280;24553;51.640;-0.752;2023-09-19T04:50:28;99939.47;;;14.55;100.00
38812;BME280;24553;51.640;-0.752;2023-09-19T04:52:54;99942.47;;;14.58;100.00
38812;BME280;24553;51.640;-0.752;2023-09-19T04:55:20;99937.13;;;14.58;100.00
38812;BME280;24553;51.640;-0.752;2023-09-19T04:57:51;99930.78;;;14.59;100.00
38812;BME280;24553;51.640;-0.752;2023-09-19T05:00:19;99926.72;;;14.57;100.00
38812;BME280;24553;51.640;-0.752;2023-09-19T05:02:51;99931.47;;;14.55;100.00
38812;BME280;24553;51.640;-0.752;2023-09-19T05:05:18;99924.50;;;14.66;100.00
38812;BME280;24553;51.640;-0.752;2023-09-19T05:07:44;99922.09;;;14.64;100.00
38812;BME280;24553;51.640;-0.752;2023-09-19T05:10:10;99922.88;;;14.65;100.00
38812;BME280;24553;51.640;-0.752;2023-09-19T05:12:37;99910.56;;;14.64;100.00
38812;BME280;24553;51.640;-0.752;2023-09-19T05:15:03;99915.81;;;14.70;100.00
38812;BME280;24553;51.640;-0.752;2023-09-19T05:17:29;99918.25;;;14.72;100.00
38812;BME280;24553;51.640;-0.752;2023-09-19T05:19:54;99913.38;;;14.69;100.00
38812;BME280;24553;51.640;-0.752;2023-09-19T05:22:20;99910.25;;;14.72;100.00
38812;BME280;24553;51.640;-0.752;2023-09-19T05:24:45;99908.25;;;14.79;100.00
38812;BME280;24553;51.640;-0.752;2023-09-19T05:27:16;99906.19;;;14.81;100.00
38812;BME280;24553;51.640;-0.752;2023-09-19T05:29:43;99912.31;;;14.81;100.00
38812;BME280;24553;51.640;-0.752;2023-09-19T05:32:09;99902.91;;;14.79;100.00
38812;BME280;24553;51.640;-0.752;2023-09-19T05:34:36;99892.47;;;14.89;100.00
38812;BME280;24553;51.640;-0.752;2023-09-19T05:37:01;99899.78;;;14.94;100.00
38812;BME280;24553;51.640;-0.752;2023-09-19T05:39:27;99886.66;;;15.04;100.00
38812;BME280;24553;51.640;-0.752;2023-09-19T05:41:52;99897.34;;;15.16;100.00
38812;BME280;24553;51.640;-0.752;2023-09-19T05:44:17;99885.00;;;15.15;100.00
38812;BME280;24553;51.640;-0.752;2023-09-19T05:46:43;99882.34;;;15.15;100.00
38812;BME280;24553;51.640;-0.752;2023-09-19T05:49:09;99883.59;;;15.24;100.00
38812;BME280;24553;51.640;-0.752;2023-09-19T05:51:34;99876.03;;;15.33;100.00
38812;BME280;24553;51.640;-0.752;2023-09-19T05:54:00;99881.03;;;15.29;100.00
38812;BME280;24553;51.640;-0.752;2023-09-19T05:56:26;99876.28;;;15.31;100.00
38812;BME280;24553;51.640;-0.752;2023-09-19T05:58:52;99860.91;;;15.38;100.00
38812;BME280;24553;51.640;-0.752;2023-09-19T06:01:18;99860.19;;;15.43;100.00
38812;BME280;24553;51.640;-0.752;2023-09-19T06:03:44;99855.84;;;15.54;100.00
38812;BME280;24553;51.640;-0.752;2023-09-19T06:06:09;99848.88;;;15.64;100.00
38812;BME280;24553;51.640;-0.752;2023-09-19T06:08:35;99845.34;;;15.64;100.00
38812;BME280;24553;51.640;-0.752;2023-09-19T06:11:00;99847.94;;;15.70;100.00
38812;BME280;24553;51.640;-0.752;2023-09-19T06:13:28;99843.25;;;15.78;100.00
38812;BME280;24553;51.640;-0.752;2023-09-19T06:15:55;99843.97;;;15.90;100.00
38812;BME280;24553;51.640;-0.752;2023-09-19T06:18:21;99843.25;;;15.95;100.00
38812;BME280;24553;51.640;-0.752;2023-09-19T06:20:47;99838.41;;;15.91;100.00
38812;BME280;24553;51.640;-0.752;2023-09-19T06:23:13;99832.56;;;15.95;100.00
38812;BME280;24553;51.640;-0.752;2023-09-19T06:25:38;99829.47;;;16.03;100.00
38812;BME280;24553;51.640;-0.752;2023-09-19T06:28:04;99824.22;;;16.08;100.00
38812;BME280;24553;51.640;-0.752;2023-09-19T06:30:30;99815.16;;;16.09;100.00
38812;BME280;24553;51.640;-0.752;2023-09-19T06:32:57;99841.09;;;16.08;100.00
38812;BME280;24553;51.640;-0.752;2023-09-19T06:35:22;99825.69;;;16.16;100.00
38812;BME280;24553;51.640;-0.752;2023-09-19T06:37:48;99824.38;;;16.18;100.00
38812;BME280;24553;51.640;-0.752;2023-09-19T06:40:14;99832.91;;;16.15;100.00
38812;BME280;24553;51.640;-0.752;2023-09-19T06:42:41;99828.28;;;16.27;100.00
38812;BME280;24553;51.640;-0.752;2023-09-19T06:45:08;99822.13;;;16.27;100.00
38812;BME280;24553;51.640;-0.752;2023-09-19T06:47:34;99818.69;;;16.31;100.00
38812;BME280;24553;51.640;-0.752;2023-09-19T06:49:59;99811.81;;;16.35;100.00
38812;BME280;24553;51.640;-0.752;2023-09-19T06:52:24;99805.16;;;16.38;100.00
38812;BME280;24553;51.640;-0.752;2023-09-19T06:54:52;99809.94;;;16.36;100.00
38812;BME280;24553;51.640;-0.752;2023-09-19T06:57:18;99808.78;;;16.49;100.00
38812;BME280;24553;51.640;-0.752;2023-09-19T06:59:45;99794.84;;;16.47;100.00
38812;BME280;24553;51.640;-0.752;2023-09-19T07:02:10;99792.72;;;16.49;100.00
38812;BME280;24553;51.640;-0.752;2023-09-19T07:04:36;99797.13;;;16.55;100.00
38812;BME280;24553;51.640;-0.752;2023-09-19T07:07:01;99787.53;;;16.59;100.00
38812;BME280;24553;51.640;-0.752;2023-09-19T07:09:26;99806.19;;;16.54;100.00
38812;BME280;24553;51.640;-0.752;2023-09-19T07:11:53;99791.56;;;16.62;100.00
38812;BME280;24553;51.640;-0.752;2023-09-19T07:14:19;99797.91;;;16.55;100.00
38812;BME280;24553;51.640;-0.752;2023-09-19T07:16:44;99783.66;;;16.50;100.00
38812;BME280;24553;51.640;-0.752;2023-09-19T07:19:10;99769.13;;;16.63;100.00
38812;BME280;24553;51.640;-0.752;2023-09-19T07:21:36;99779.06;;;16.67;100.00
38812;BME280;24553;51.640;-0.752;2023-09-19T07:24:03;99787.44;;;16.54;100.00
38812;BME280;24553;51.640;-0.752;2023-09-19T07:26:29;99772.91;;;16.67;100.00
38812;BME280;24553;51.640;-0.752;2023-09-19T07:28:54;99770.00;;;16.68;100.00
38812;BME280;24553;51.640;-0.752;2023-09-19T07:31:20;99775.22;;;16.80;100.00
38812;BME280;24553;51.640;-0.752;2023-09-19T07:33:45;99777.91;;;16.80;100.00
38812;BME280;24553;51.640;-0.752;2023-09-19T07:36:11;99760.94;;;16.74;100.00
38812;BME280;24553;51.640;-0.752;2023-09-19T07:38:39;99773.25;;;16.92;100.00
38812;BME280;24553;51.640;-0.752;2023-09-19T07:41:04;99774.56;;;16.90;100.00
38812;BME280;24553;51.640;-0.752;2023-09-19T07:43:30;99773.25;;;16.92;100.00
38812;BME280;24553;51.640;-0.752;2023-09-19T07:45:56;99770.94;;;17.01;100.00
38812;BME280;24553;51.640;-0.752;2023-09-19T07:48:22;99777.34;;;17.00;100.00
38812;BME280;24553;51.640;-0.752;2023-09-19T07:50:49;99768.63;;;17.10;100.00
38812;BME280;24553;51.640;-0.752;2023-09-19T07:53:14;99778.31;;;17.16;100.00
38812;BME280;24553;51.640;-0.752;2023-09-19T07:55:41;99780.03;;;17.00;100.00
38812;BME280;24553;51.640;-0.752;2023-09-19T07:58:07;99760.66;;;17.15;100.00
38812;BME280;24553;51.640;-0.752;2023-09-19T08:00:33;99763.06;;;17.16;100.00
38812;BME280;24553;51.640;-0.752;2023-09-19T08:03:00;99749.63;;;17.11;100.00
38812;BME280;24553;51.640;-0.752;2023-09-19T08:05:25;99765.03;;;17.26;100.00
38812;BME280;24553;51.640;-0.752;2023-09-19T08:07:51;99748.94;;;17.48;100.00
38812;BME280;24553;51.640;-0.752;2023-09-19T08:10:17;99733.34;;;17.45;100.00
38812;BME280;24553;51.640;-0.752;2023-09-19T08:12:45;99733.03;;;17.69;100.00
38812;BME280;24553;51.640;-0.752;2023-09-19T08:15:15;99743.25;;;17.77;100.00
38812;BME280;24553;51.640;-0.752;2023-09-19T08:17:41;99732.72;;;17.97;100.00
38812;BME280;24553;51.640;-0.752;2023-09-19T08:20:08;99739.78;;;18.14;100.00
38812;BME280;24553;51.640;-0.752;2023-09-19T08:22:42;99717.63;;;18.28;100.00
38812;BME280;24553;51.640;-0.752;2023-09-19T08:25:08;99724.59;;;18.29;100.00
38812;BME280;24553;51.640;-0.752;2023-09-19T08:27:34;99719.22;;;18.29;100.00
38812;BME280;24553;51.640;-0.752;2023-09-19T08:30:01;99735.06;;;18.31;100.00
38812;BME280;24553;51.640;-0.752;2023-09-19T08:32:28;99735.63;;;18.33;100.00
38812;BME280;24553;51.640;-0.752;2023-09-19T08:34:53;99743.59;;;18.18;100.00
38812;BME280;24553;51.640;-0.752;2023-09-19T08:37:19;99741.44;;;18.20;100.00
38812;BME280;24553;51.640;-0.752;2023-09-19T08:39:44;99735.50;;;18.13;100.00
38812;BME280;24553;51.640;-0.752;2023-09-19T08:42:10;99731.66;;;17.98;100.00
38812;BME280;24553;51.640;-0.752;2023-09-19T08:44:37;99746.13;;;17.97;100.00
38812;BME280;24553;51.640;-0.752;2023-09-19T08:47:10;99734.84;;;17.95;100.00
38812;BME280;24553;51.640;-0.752;2023-09-19T08:52:30;99731.47;;;18.10;100.00
38812;BME280;24553;51.640;-0.752;2023-09-19T08:54:59;99730.69;;;18.20;100.00
38812;BME280;24553;51.640;-0.752;2023-09-19T08:57:33;99733.94;;;18.22;100.00
38812;BME280;24553;51.640;-0.752;2023-09-19T09:00:01;99739.63;;;18.30;100.00
38812;BME280;24553;51.640;-0.752;2023-09-19T09:02:31;99730.88;;;18.50;100.00
38812;BME280;24553;51.640;-0.752;2023-09-19T09:04:59;99732.31;;;18.73;100.00
38812;BME280;24553;51.640;-0.752;2023-09-19T09:07:25;99731.06;;;18.96;100.00
38812;BME280;24553;51.640;-0.752;2023-09-19T09:09:52;99740.22;;;18.95;100.00
38812;BME280;24553;51.640;-0.752;2023-09-19T09:12:18;99737.25;;;19.02;100.00
38812;BME280;24553;51.640;-0.752;2023-09-19T09:14:45;99737.00;;;18.99;100.00
38812;BME280;24553;51.640;-0.752;2023-09-19T09:17:11;99736.44;;;18.91;100.00
38812;BME280;24553;51.640;-0.752;2023-09-19T09:19:37;99739.59;;;18.78;100.00
38812;BME280;24553;51.640;-0.752;2023-09-19T09:22:07;99723.81;;;18.97;100.00
38812;BME280;24553;51.640;-0.752;2023-09-19T09:24:33;99737.00;;;19.04;100.00
38812;BME280;24553;51.640;-0.752;2023-09-19T09:26:59;99738.34;;;19.06;100.00
38812;BME280;24553;51.640;-0.752;2023-09-19T09:29:48;99738.06;;;18.92;100.00
38812;BME280;24553;51.640;-0.752;2023-09-19T09:32:24;99730.78;;;18.83;100.00
38812;BME280;24553;51.640;-0.752;2023-09-19T09:34:55;99725.72;;;19.02;100.00
38812;BME280;24553;51.640;-0.752;2023-09-19T09:37:22;99714.69;;;18.93;100.00
38812;BME280;24553;51.640;-0.752;2023-09-19T09:39:55;99717.88;;;18.80;100.00
38812;BME280;24553;51.640;-0.752;2023-09-19T09:42:35;99715.72;;;18.87;100.00
38812;BME280;24553;51.640;-0.752;2023-09-19T09:45:19;99702.63;;;19.01;100.00
38812;BME280;24553;51.640;-0.752;2023-09-19T09:47:53;99709.59;;;19.02;100.00
38812;BME280;24553;51.640;-0.752;2023-09-19T09:50:28;99703.69;;;19.15;100.00
38812;BME280;24553;51.640;-0.752;2023-09-19T09:53:30;99695.94;;;19.18;100.00
38812;BME280;24553;51.640;-0.752;2023-09-19T09:56:01;99705.88;;;19.38;100.00
38812;BME280;24553;51.640;-0.752;2023-09-19T09:58:28;99696.47;;;19.26;100.00
38812;BME280;24553;51.640;-0.752;2023-09-19T10:00:58;99693.78;;;19.36;100.00
38812;BME280;24553;51.640;-0.752;2023-09-19T10:03:38;99691.63;;;19.48;100.00
38812;BME280;24553;51.640;-0.752;2023-09-19T10:06:06;99687.59;;;19.46;100.00
38812;BME280;24553;51.640;-0.752;2023-09-19T10:08:57;99696.75;;;19.55;100.00
38812;BME280;24553;51.640;-0.752;2023-09-19T10:11:30;99680.59;;;19.96;100.00
38812;BME280;24553;51.640;-0.752;2023-09-19T10:13:57;99685.94;;;20.16;100.00
38812;BME280;24553;51.640;-0.752;2023-09-19T10:16:28;99694.53;;;20.18;100.00
38812;BME280;24553;51.640;-0.752;2023-09-19T10:18:58;99685.63;;;20.23;100.00
38812;BME280;24553;51.640;-0.752;2023-09-19T10:21:28;99698.81;;;20.24;100.00
38812;BME280;24553;51.640;-0.752;2023-09-19T10:23:58;99696.44;;;20.02;100.00
38812;BME280;24553;51.640;-0.752;2023-09-19T10:26:26;99699.97;;;19.93;100.00
38812;BME280;24553;51.640;-0.752;2023-09-19T10:28:56;99705.09;;;19.79;100.00
38812;BME280;24553;51.640;-0.752;2023-09-19T10:31:23;99701.03;;;19.51;100.00
38812;BME280;24553;51.640;-0.752;2023-09-19T10:33:51;99708.31;;;19.60;100.00
38812;BME280;24553;51.640;-0.752;2023-09-19T10:36:18;99695.97;;;19.59;100.00
38812;BME280;24553;51.640;-0.752;2023-09-19T10:38:45;99708.84;;;19.63;100.00
38812;BME280;24553;51.640;-0.752;2023-09-19T10:41:14;99690.28;;;19.61;100.00
38812;BME280;24553;51.640;-0.752;2023-09-19T10:43:42;99708.31;;;19.66;100.00
38812;BME280;24553;51.640;-0.752;2023-09-19T10:46:10;99715.56;;;19.65;100.00
38812;BME280;24553;51.640;-0.752;2023-09-19T10:48:38;99697.81;;;19.59;100.00
38812;BME280;24553;51.640;-0.752;2023-09-19T10:51:09;99709.41;;;19.49;100.00
38812;BME280;24553;51.640;-0.752;2023-09-19T10:56:11;99711.81;;;19.51;100.00
38812;BME280;24553;51.640;-0.752;2023-09-19T10:58:42;99715.03;;;19.53;100.00
38812;BME280;24553;51.640;-0.752;2023-09-19T11:01:10;99712.88;;;19.60;100.00
38812;BME280;24553;51.640;-0.752;2023-09-19T11:03:41;99713.69;;;19.40;100.00
38812;BME280;24553;51.640;-0.752;2023-09-19T11:06:16;99705.34;;;19.42;100.00
38812;BME280;24553;51.640;-0.752;2023-09-19T11:30:54;99709.38;;;19.24;100.00
38812;BME280;24553;51.640;-0.752;2023-09-19T11:33:32;99708.06;;;19.42;100.00
38812;BME280;24553;51.640;-0.752;2023-09-19T11:36:11;99714.78;;;19.44;100.00
38812;BME280;24553;51.640;-0.752;2023-09-19T11:46:26;99684.91;;;19.40;100.00
38812;BME280;24553;51.640;-0.752;2023-09-19T11:48:53;99680.09;;;19.53;100.00
38812;BME280;24553;51.640;-0.752;2023-09-19T11:51:23;99695.41;;;19.63;100.00
38812;BME280;24553;51.640;-0.752;2023-09-19T11:53:53;99689.75;;;19.59;100.00
38812;BME280;24553;51.640;-0.752;2023-09-19T11:56:25;99696.22;;;19.73;100.00
38812;BME280;24553;51.640;-0.752;2023-09-19T11:58:56;99708.88;;;19.68;100.00
38812;BME280;24553;51.640;-0.752;2023-09-19T12:01:29;99702.13;;;19.55;100.00
38812;BME280;24553;51.640;-0.752;2023-09-19T12:03:57;99709.91;;;19.21;100.00
38812;BME280;24553;51.640;-0.752;2023-09-19T12:06:24;99710.16;;;19.19;100.00
38812;BME280;24553;51.640;-0.752;2023-09-19T12:08:50;99711.78;;;19.20;100.00
38812;BME280;24553;51.640;-0.752;2023-09-19T12:11:16;99708.56;;;19.18;100.00
38812;BME280;24553;51.640;-0.752;2023-09-19T12:13:46;99700.78;;;19.37;100.00
38812;BME280;24553;51.640;-0.752;2023-09-19T12:16:16;99709.09;;;19.46;100.00
38812;BME280;24553;51.640;-0.752;2023-09-19T12:18:42;99705.06;;;19.38;100.00
38812;BME280;24553;51.640;-0.752;2023-09-19T12:21:31;99704.03;;;19.39;100.00
38812;BME280;24553;51.640;-0.752;2023-09-19T12:23:58;99703.19;;;19.38;100.00
38812;BME280;24553;51.640;-0.752;2023-09-19T12:26:26;99693.78;;;19.41;100.00
38812;BME280;24553;51.640;-0.752;2023-09-19T12:28:54;99700.50;;;19.49;100.00
38812;BME280;24553;51.640;-0.752;2023-09-19T12:31:20;99697.81;;;19.59;100.00
38812;BME280;24553;51.640;-0.752;2023-09-19T12:33:45;99694.34;;;19.69;100.00
38812;BME280;24553;51.640;-0.752;2023-09-19T12:36:23;99700.00;;;19.47;100.00
38812;BME280;24553;51.640;-0.752;2023-09-19T12:38:50;99686.25;;;19.48;100.00
38812;BME280;24553;51.640;-0.752;2023-09-19T12:41:18;99691.63;;;19.43;100.00
38812;BME280;24553;51.640;-0.752;2023-09-19T12:43:46;99695.41;;;19.47;100.00
38812;BME280;24553;51.640;-0.752;2023-09-19T12:46:11;99703.75;;;19.51;100.00
38812;BME280;24553;51.640;-0.752;2023-09-19T12:48:36;99713.94;;;19.38;100.00
38812;BME280;24553;51.640;-0.752;2023-09-19T12:51:03;99701.03;;;19.30;100.00
38812;BME280;24553;51.640;-0.752;2023-09-19T12:53:32;99706.16;;;19.32;100.00
38812;BME280;24553;51.640;-0.752;2023-09-19T12:55:59;99717.44;;;19.29;100.00
38812;BME280;24553;51.640;-0.752;2023-09-19T12:58:25;99711.53;;;19.37;100.00
38812;BME280;24553;51.640;-0.752;2023-09-19T13:00:51;99719.03;;;19.25;100.00
38812;BME280;24553;51.640;-0.752;2023-09-19T13:08:25;99722.53;;;19.30;100.00
38812;BME280;24553;51.640;-0.752;2023-09-19T13:11:12;99714.47;;;19.25;100.00
38812;BME280;24553;51.640;-0.752;2023-09-19T13:19:36;99725.75;;;19.22;100.00
38812;BME280;24553;51.640;-0.752;2023-09-19T13:22:02;99736.25;;;19.24;100.00
38812;BME280;24553;51.640;-0.752;2023-09-19T13:24:28;99724.66;;;19.23;100.00
38812;BME280;24553;51.640;-0.752;2023-09-19T13:26:56;99743.97;;;19.05;100.00
38812;BME280;24553;51.640;-0.752;2023-09-19T13:29:22;99731.41;;;19.21;100.00
38812;BME280;24553;51.640;-0.752;2023-09-19T13:31:52;99749.63;;;19.03;100.00
38812;BME280;24553;51.640;-0.752;2023-09-19T13:34:20;99743.19;;;19.09;100.00
38812;BME280;24553;51.640;-0.752;2023-09-19T13:36:46;99735.94;;;19.15;100.00
38812;BME280;24553;51.640;-0.752;2023-09-19T13:39:16;99756.06;;;19.07;100.00
38812;BME280;24553;51.640;-0.752;2023-09-19T13:41:44;99747.53;;;19.15;100.00
38812;BME280;24553;51.640;-0.752;2023-09-19T13:44:11;99731.13;;;19.27;100.00
38812;BME280;24553;51.640;-0.752;2023-09-19T13:46:36;99738.97;;;19.44;100.00